Nearby METAR Reports

 

EGTE - Exeter Airport, United Kingdom
Distance from station: S 19km
Updated: 22/06/2018 15:20
Clear
Clear
 Wind from ENE
Wind: ENE 15 km/h
Temperature: 21°C
Dew Point: 4°C
Humidity: 33%
Barometer: 1030 hPa
Summary: Clear
Visibility: greater than 10 km
2018/06/22 14:20 EGTE 221420Z 06008KT 020V110 CAVOK 21/04 Q1030
EGDY - Yeovilton (navy), United Kingdom
Distance from station: ENE 55km
Updated: 22/06/2018 14:50
Few Clouds
Few Clouds
 Wind from N
Wind: N 7 km/h
Temperature: 21°C
Dew Point: 8°C
Humidity: 43%
Barometer: 1030 hPa
Clouds: Few Clouds
Visibility: 10 km
Cloud details: Few Clouds 914 m
2018/06/22 13:50 EGDY 221350Z 01004KT 9999 FEW030 21/08 Q1030 BLU NOSIG
 
EGFF - Cardiff-Wales Ar, United Kingdom
Distance from station: N 56km
Updated: 22/06/2018 15:20
Clear
Clear
 Wind from WSW
Wind: WSW 15 km/h
Temperature: 17°C
Dew Point: 7°C
Humidity: 52%
Barometer: 1031 hPa
Clouds: Clear
Visibility: 10 km
2018/06/22 14:20 EGFF 221420Z AUTO 24008KT 190V280 9999 NCD 17/07 Q1031
EGDX - St Athan Raf, United Kingdom
Distance from station: N 58km
Updated: 22/06/2018 14:50
Clear
Clear
 Wind from WSW
Wind: WSW 17 km/h
Temperature: 16°C
Dew Point: 7°C
Humidity: 55%
Barometer: 1031 hPa
Summary: Clear
Visibility: greater than 10 km
2018/06/22 13:50 EGDX 221350Z 25009KT CAVOK 16/07 Q1031 BLU
 
EGGD - Bristol/Lulsgate, United Kingdom
Distance from station: NE 71km
Updated: 22/06/2018 15:20
Few Clouds
Few Clouds
 Wind from varies
Wind: varies 9 km/h
Temperature: 19°C
Dew Point: 7°C
Humidity: 46%
Barometer: 1031 hPa
Clouds: Few Clouds
Visibility: 10 km
Cloud details: Few Clouds 1372 m
2018/06/22 14:20 EGGD 221420Z AUTO VRB05KT 9999 FEW045 19/07 Q1031